Terminal Aerodrome Forecast
Issued by NWS

Home | Current Version | Previous Version | Text Only | Print | Product List | Glossary On
Versions: 1 2 3 4 5 6 7 8 9 10 11 12 13 14 15 16 17
734
FTUS46 KLOX 301734
TAFBUR
TAF
KBUR 301734Z 3018/3118 VRB05KT P6SM SCT250
     FM301900 19008KT P6SM SCT250
     FM310000 25014KT P6SM SCT250
     FM310300 33016KT P6SM SKC
     FM310800 32012KT P6SM SKC
     FM311600 32005KT P6SM FEW250=

USA.gov is the U.S. government's official web portal to all federal, state and local government web resources and services.